createdAt,value
2022-11-26T00:00:48.559Z,28.38
2022-11-26T00:03:37.340Z,29.23
2022-11-26T00:06:25.034Z,33.58
2022-11-26T00:08:59.018Z,29.83
2022-11-26T00:11:31.868Z,28.55
2022-11-26T00:14:09.790Z,22.30
2022-11-26T00:16:42.878Z,29.20
2022-11-26T00:19:15.951Z,30.35
2022-11-26T00:21:48.575Z,30.90
2022-11-26T00:24:27.150Z,32.20
2022-11-26T00:27:00.261Z,31.98
2022-11-26T00:29:33.361Z,30.65
2022-11-26T00:32:09.775Z,29.23
2022-11-26T00:34:42.731Z,25.83
2022-11-26T00:37:22.448Z,26.15
2022-11-26T00:39:56.518Z,31.42
2022-11-26T00:42:29.069Z,33.75
2022-11-26T00:45:01.980Z,32.47
2022-11-26T00:47:34.580Z,37.88
2022-11-26T00:50:07.980Z,33.90
2022-11-26T00:52:40.554Z,30.43
2022-11-26T00:55:31.865Z,26.27
2022-11-26T00:58:05.460Z,32.78
2022-11-26T01:00:38.466Z,34.33
2022-11-26T01:03:11.160Z,31.95
2022-11-26T01:05:44.358Z,35.97
2022-11-26T01:08:26.217Z,38.25
2022-11-26T01:11:00.100Z,35.85
2022-11-26T01:13:33.128Z,34.45
2022-11-26T01:16:15.430Z,34.40
2022-11-26T01:18:48.790Z,37.05
2022-11-26T01:21:23.408Z,31.05
2022-11-26T01:23:56.839Z,29.13
2022-11-26T01:26:34.138Z,31.35
2022-11-26T01:29:06.783Z,33.28
2022-11-26T01:31:39.825Z,32.08
2022-11-26T01:34:12.376Z,32.50
2022-11-26T01:36:45.352Z,33.15
2022-11-26T01:39:19.544Z,28.00
2022-11-26T01:42:04.790Z,30.03
2022-11-26T01:44:38.173Z,35.30
2022-11-26T01:47:22.762Z,30.63
2022-11-26T01:50:13.909Z,39.33
2022-11-26T01:52:46.865Z,32.33
2022-11-26T01:55:19.493Z,34.05
2022-11-26T01:57:52.491Z,37.50
2022-11-26T02:00:25.123Z,27.37
2022-11-26T02:02:58.052Z,36.08
2022-11-26T02:05:33.776Z,34.17
2022-11-26T02:08:07.067Z,33.53
2022-11-26T02:10:39.735Z,31.35
2022-11-26T02:13:12.805Z,28.00
2022-11-26T02:16:05.632Z,26.50
2022-11-26T02:18:40.353Z,30.40
2022-11-26T02:21:15.621Z,29.02
2022-11-26T02:23:57.507Z,27.55
2022-11-26T02:26:38.942Z,35.33
2022-11-26T02:29:17.990Z,31.42
2022-11-26T02:31:56.334Z,31.20
2022-11-26T02:34:37.728Z,22.30
2022-11-26T02:37:15.479Z,32.00
2022-11-26T02:39:48.349Z,30.63
2022-11-26T02:42:28.600Z,33.85
2022-11-26T02:45:21.748Z,26.77
2022-11-26T02:47:55.869Z,27.03
2022-11-26T02:50:28.766Z,26.17
2022-11-26T02:53:02.900Z,27.83
2022-11-26T02:55:38.254Z,29.65
2022-11-26T02:58:10.864Z,30.13
2022-11-26T03:00:45.170Z,25.27
2022-11-26T03:03:29.709Z,27.75
2022-11-26T03:06:05.082Z,26.42
2022-11-26T03:08:38.136Z,25.15
2022-11-26T03:11:11.072Z,25.48
2022-11-26T03:13:43.695Z,26.65
2022-11-26T03:16:16.940Z,25.45
2022-11-26T03:18:49.581Z,28.05
2022-11-26T03:21:22.640Z,21.75
2022-11-26T03:23:55.412Z,23.50
2022-11-26T03:26:28.252Z,28.77
2022-11-26T03:29:00.989Z,24.63
2022-11-26T03:31:33.906Z,28.95
2022-11-26T03:34:06.515Z,26.50
2022-11-26T03:36:39.424Z,28.85
2022-11-26T03:39:12.166Z,27.60
2022-11-26T03:41:45.067Z,22.27
2022-11-26T03:44:17.674Z,21.90
2022-11-26T03:46:50.587Z,24.63
2022-11-26T03:49:23.150Z,30.45
2022-11-26T03:51:56.006Z,29.37
2022-11-26T03:54:28.600Z,30.23
2022-11-26T03:57:01.547Z,27.30
2022-11-26T03:59:34.148Z,23.38
2022-11-26T04:02:07.255Z,26.85
2022-11-26T04:04:40.003Z,26.95
2022-11-26T04:07:13.261Z,25.80
2022-11-26T04:09:45.921Z,25.80
2022-11-26T04:12:18.918Z,24.23
2022-11-26T04:14:51.434Z,28.65
2022-11-26T04:17:24.372Z,27.38
2022-11-26T04:19:56.948Z,22.40
2022-11-26T04:22:29.881Z,29.40
2022-11-26T04:25:02.659Z,29.05
2022-11-26T04:27:35.676Z,27.80
2022-11-26T04:30:08.923Z,29.58
2022-11-26T04:32:41.994Z,26.95
2022-11-26T04:35:14.644Z,24.17
2022-11-26T04:37:48.111Z,26.38
2022-11-26T04:40:20.685Z,29.95
2022-11-26T04:42:53.592Z,26.75
2022-11-26T04:45:26.606Z,24.92
2022-11-26T04:47:59.653Z,24.13
2022-11-26T04:50:32.747Z,28.35
2022-11-26T04:53:05.696Z,30.88
2022-11-26T04:55:38.179Z,30.60
2022-11-26T04:58:11.121Z,26.55
2022-11-26T05:00:46.022Z,28.93
2022-11-26T05:03:23.236Z,28.67
2022-11-26T05:05:55.773Z,29.42
2022-11-26T05:08:28.801Z,28.80
2022-11-26T05:11:03.373Z,24.97
2022-11-26T05:13:36.286Z,24.53
2022-11-26T05:16:08.894Z,22.92
2022-11-26T05:18:41.768Z,25.00
2022-11-26T05:21:14.349Z,25.50
2022-11-26T05:23:47.566Z,23.50
2022-11-26T05:26:20.118Z,25.25
2022-11-26T05:28:53.028Z,25.48
2022-11-26T05:31:25.588Z,35.10
2022-11-26T05:33:58.455Z,29.05
2022-11-26T05:36:30.969Z,25.30
2022-11-26T05:39:04.306Z,23.25
2022-11-26T05:41:36.843Z,25.60
2022-11-26T05:44:09.997Z,30.60
2022-11-26T05:46:43.331Z,28.42
2022-11-26T05:49:16.341Z,30.77
2022-11-26T05:51:48.883Z,31.33
2022-11-26T05:54:21.811Z,28.15
2022-11-26T05:56:59.873Z,28.33
2022-11-26T05:59:33.343Z,27.67
2022-11-26T06:02:06.612Z,25.55
2022-11-26T06:04:39.903Z,22.45
2022-11-26T06:07:12.845Z,27.08
2022-11-26T06:09:45.904Z,27.00
2022-11-26T06:12:18.472Z,26.50
2022-11-26T06:14:51.387Z,25.77
2022-11-26T06:17:23.985Z,27.38
2022-11-26T06:19:57.507Z,28.70
2022-11-26T06:22:30.072Z,27.33
2022-11-26T06:25:03.021Z,28.95
2022-11-26T06:27:36.030Z,29.37
2022-11-26T06:30:10.296Z,26.13
2022-11-26T06:32:42.909Z,23.40
2022-11-26T06:35:16.206Z,24.30
2022-11-26T06:37:48.896Z,23.25
2022-11-26T06:40:21.804Z,24.05
2022-11-26T06:42:57.025Z,25.77
2022-11-26T06:45:29.951Z,23.58
2022-11-26T06:48:02.520Z,22.73
2022-11-26T06:50:35.387Z,17.88
2022-11-26T06:53:07.941Z,24.10
2022-11-26T06:55:41.100Z,23.30
2022-11-26T06:58:15.526Z,26.77
2022-11-26T07:00:48.530Z,20.67
2022-11-26T07:03:23.974Z,22.20
2022-11-26T07:05:58.431Z,24.92
2022-11-26T07:08:31.005Z,21.38
2022-11-26T07:11:04.001Z,23.25
2022-11-26T07:13:37.050Z,20.08
2022-11-26T07:16:10.243Z,23.73
2022-11-26T07:18:43.280Z,29.60
2022-11-26T07:21:16.344Z,24.27
2022-11-26T07:23:49.375Z,30.85
2022-11-26T07:26:23.450Z,27.55
2022-11-26T07:28:56.120Z,18.63
2022-11-26T07:31:29.182Z,26.02
2022-11-26T07:34:01.784Z,22.58
2022-11-26T07:36:34.874Z,30.42
2022-11-26T07:39:07.530Z,27.50
2022-11-26T07:41:40.493Z,23.23
2022-11-26T07:44:14.009Z,32.85
2022-11-26T07:46:46.939Z,35.70
2022-11-26T07:49:19.722Z,32.40
2022-11-26T07:51:53.124Z,30.48
2022-11-26T07:54:25.671Z,30.17
2022-11-26T07:56:58.489Z,26.92
2022-11-26T07:59:31.116Z,29.30
2022-11-26T08:02:04.043Z,19.65
2022-11-26T08:04:36.803Z,24.35
2022-11-26T08:07:09.950Z,26.53
2022-11-26T08:09:42.671Z,23.70
2022-11-26T08:12:15.587Z,20.60
2022-11-26T08:14:48.092Z,25.63
2022-11-26T08:17:21.100Z,29.90
2022-11-26T08:19:53.696Z,20.60
2022-11-26T08:22:26.540Z,18.95
2022-11-26T08:24:59.322Z,22.57
2022-11-26T08:27:33.571Z,19.90
2022-11-26T08:30:06.675Z,17.02
2022-11-26T08:32:39.690Z,16.95
2022-11-26T08:35:12.914Z,21.47
2022-11-26T08:37:45.817Z,19.30
2022-11-26T08:40:18.361Z,22.33
2022-11-26T08:42:51.339Z,21.08
2022-11-26T08:45:24.061Z,19.58
2022-11-26T08:47:57.238Z,17.42
2022-11-26T08:50:29.902Z,13.40
2022-11-26T08:53:02.813Z,13.23
2022-11-26T08:55:58.901Z,16.03
2022-11-26T08:58:28.690Z,14.02
2022-11-26T09:01:09.434Z,17.35
2022-11-26T09:03:42.848Z,13.47
2022-11-26T09:06:15.370Z,15.47
2022-11-26T09:09:06.713Z,14.63
2022-11-26T09:11:54.425Z,14.60
2022-11-26T09:14:28.478Z,13.73
2022-11-26T09:17:01.030Z,11.00
2022-11-26T09:19:34.372Z,12.82
2022-11-26T09:22:07.322Z,14.70
2022-11-26T09:24:40.318Z,16.65
2022-11-26T09:27:12.997Z,13.07
2022-11-26T09:29:45.968Z,14.40
2022-11-26T09:32:29.690Z,15.77
2022-11-26T09:35:07.033Z,15.05
2022-11-26T09:37:39.681Z,11.13
2022-11-26T09:40:16.809Z,12.57
2022-11-26T09:42:57.219Z,12.88
2022-11-26T09:45:43.802Z,13.02
2022-11-26T09:48:18.494Z,11.98
2022-11-26T09:50:54.111Z,14.95
2022-11-26T09:53:27.891Z,13.68
2022-11-26T09:56:01.019Z,11.57
2022-11-26T09:58:46.877Z,11.38
2022-11-26T10:01:21.674Z,11.25
2022-11-26T10:03:54.502Z,11.88
2022-11-26T10:06:30.540Z,12.90
2022-11-26T10:09:16.075Z,10.45
2022-11-26T10:11:58.352Z,12.07
2022-11-26T10:14:39.916Z,10.40
2022-11-26T10:17:27.998Z,14.97
2022-11-26T10:20:00.722Z,8.90
2022-11-26T10:22:56.734Z,6.87
2022-11-26T10:25:31.968Z,9.23
2022-11-26T10:28:11.727Z,6.28
2022-11-26T10:30:44.732Z,7.32
2022-11-26T10:33:20.790Z,6.57
2022-11-26T10:35:53.468Z,6.73
2022-11-26T10:38:26.481Z,7.40
2022-11-26T10:40:59.124Z,7.32
2022-11-26T10:43:32.673Z,5.50
2022-11-26T10:46:05.298Z,7.32
2022-11-26T10:48:38.226Z,6.68
2022-11-26T10:51:16.286Z,6.40
2022-11-26T10:53:56.521Z,6.82
2022-11-26T10:56:35.591Z,5.55
2022-11-26T10:59:20.690Z,7.53
2022-11-26T11:01:56.251Z,5.55
2022-11-26T11:04:32.645Z,6.97
2022-11-26T11:07:10.301Z,4.50
2022-11-26T11:09:47.750Z,4.85
2022-11-26T11:12:22.452Z,5.35
2022-11-26T11:14:55.670Z,7.18
2022-11-26T11:17:30.769Z,9.35
2022-11-26T11:20:13.768Z,7.07
2022-11-26T11:22:47.413Z,6.38
2022-11-26T11:25:25.065Z,5.10
2022-11-26T11:28:13.151Z,4.47
2022-11-26T11:30:46.637Z,4.37
2022-11-26T11:33:21.154Z,4.93
2022-11-26T11:36:02.138Z,3.55
2022-11-26T11:38:47.654Z,4.97
2022-11-26T11:41:32.821Z,7.88
2022-11-26T11:44:24.382Z,4.22
2022-11-26T11:47:07.636Z,4.47
2022-11-26T11:49:55.227Z,4.05
2022-11-26T11:52:46.952Z,4.70
2022-11-26T11:55:38.205Z,4.35
2022-11-26T11:58:29.699Z,4.03
2022-11-26T12:01:02.173Z,5.93
2022-11-26T12:03:40.893Z,8.70
2022-11-26T12:06:31.993Z,5.75
2022-11-26T12:09:21.416Z,10.18
2022-11-26T12:11:57.085Z,9.70
2022-11-26T12:14:29.919Z,11.30
2022-11-26T12:17:14.687Z,8.27
2022-11-26T12:19:51.107Z,6.72
2022-11-26T12:22:23.771Z,11.88
2022-11-26T12:25:02.704Z,5.75
2022-11-26T12:27:39.533Z,6.90
2022-11-26T12:30:14.611Z,8.00
2022-11-26T12:32:53.466Z,10.55
2022-11-26T12:35:26.308Z,13.15
2022-11-26T12:38:00.272Z,11.63
2022-11-26T12:40:38.736Z,11.05
2022-11-26T12:43:28.158Z,12.27
2022-11-26T12:46:04.867Z,9.27
2022-11-26T12:48:58.144Z,28.58
2022-11-26T12:51:39.049Z,9.63
2022-11-26T12:54:26.985Z,7.13
2022-11-26T12:57:02.590Z,10.05
2022-11-26T12:59:40.443Z,45.67
2022-11-26T13:02:24.011Z,17.77
2022-11-26T13:04:57.411Z,15.18
2022-11-26T13:07:44.886Z,20.77
2022-11-26T13:10:40.730Z,10.77
2022-11-26T13:13:22.771Z,12.00
2022-11-26T13:16:12.749Z,11.05
2022-11-26T13:18:48.933Z,8.90
2022-11-26T13:21:22.142Z,10.00
2022-11-26T13:24:13.588Z,9.68
2022-11-26T13:26:59.371Z,9.68
2022-11-26T13:29:50.925Z,7.88
2022-11-26T13:32:27.297Z,7.47
2022-11-26T13:35:00.421Z,7.97
2022-11-26T13:37:51.045Z,6.93
2022-11-26T13:40:37.520Z,11.50
2022-11-26T13:43:17.266Z,11.20
2022-11-26T13:46:10.898Z,14.10
2022-11-26T13:49:02.374Z,13.20
2022-11-26T13:51:39.483Z,10.27
2022-11-26T13:54:15.754Z,12.23
2022-11-26T13:56:49.380Z,10.80
2022-11-26T13:59:28.392Z,12.33
2022-11-26T14:02:21.828Z,14.57
2022-11-26T14:04:54.500Z,10.50
2022-11-26T14:07:27.505Z,12.18
2022-11-26T14:10:01.203Z,9.80
2022-11-26T14:12:52.961Z,14.73
2022-11-26T14:15:51.773Z,15.38
2022-11-26T14:18:44.576Z,13.48
2022-11-26T14:21:18.087Z,17.75
2022-11-26T14:23:52.090Z,18.08
2022-11-26T14:26:24.550Z,21.70
2022-11-26T14:29:06.183Z,20.88
2022-11-26T14:31:41.576Z,21.90
2022-11-26T14:34:16.301Z,24.27
2022-11-26T14:36:53.322Z,21.52
2022-11-26T14:39:26.888Z,21.50
2022-11-26T14:42:05.727Z,21.55
2022-11-26T14:44:39.645Z,20.40
2022-11-26T14:47:17.680Z,19.45
2022-11-26T14:49:54.615Z,22.55
2022-11-26T14:52:29.006Z,38.33
2022-11-26T14:55:04.078Z,57.88
2022-11-26T14:57:42.749Z,42.63
2022-11-26T15:00:15.656Z,43.20
2022-11-26T15:02:48.578Z,33.05
2022-11-26T15:05:24.326Z,25.67
2022-11-26T15:07:58.688Z,23.00
2022-11-26T15:10:48.975Z,23.52
2022-11-26T15:13:30.390Z,21.33
2022-11-26T15:16:04.529Z,21.77
2022-11-26T15:18:37.204Z,26.98
2022-11-26T15:21:15.738Z,25.25
2022-11-26T15:23:48.406Z,27.90
2022-11-26T15:26:25.159Z,25.83
2022-11-26T15:28:57.778Z,29.42
2022-11-26T15:31:43.257Z,24.85
2022-11-26T15:34:16.143Z,25.42
2022-11-26T15:36:49.042Z,28.70
2022-11-26T15:39:25.966Z,26.33
2022-11-26T15:42:03.971Z,29.77
2022-11-26T15:44:42.342Z,26.25
2022-11-26T15:47:18.943Z,27.30
2022-11-26T15:49:56.745Z,22.87
2022-11-26T15:52:33.064Z,26.65
2022-11-26T15:55:15.167Z,29.63
2022-11-26T15:57:50.604Z,36.88
2022-11-26T16:00:37.637Z,24.23
2022-11-26T16:03:29.317Z,26.40
2022-11-26T16:06:03.430Z,26.52
2022-11-26T16:08:37.351Z,24.73
2022-11-26T16:11:19.925Z,25.92
2022-11-26T16:13:52.921Z,21.52
2022-11-26T16:16:26.193Z,24.60
2022-11-26T16:19:04.636Z,24.58
2022-11-26T16:21:37.269Z,22.85
2022-11-26T16:24:28.929Z,26.02
2022-11-26T16:27:28.940Z,23.20
2022-11-26T16:30:14.863Z,24.90
2022-11-26T16:32:47.391Z,27.70
2022-11-26T16:35:44.025Z,24.85
2022-11-26T16:38:18.385Z,25.48
2022-11-26T16:40:51.819Z,25.92
2022-11-26T16:43:24.401Z,29.10
2022-11-26T16:45:58.815Z,31.05
2022-11-26T16:48:31.377Z,22.70
2022-11-26T16:51:04.232Z,41.95
2022-11-26T16:53:36.708Z,36.28
2022-11-26T16:56:20.739Z,37.10
2022-11-26T16:58:54.824Z,44.65
2022-11-26T17:01:28.392Z,195.85
2022-11-26T17:04:00.910Z,127.63
2022-11-26T17:06:34.366Z,66.75
2022-11-26T17:09:07.087Z,235.47
2022-11-26T17:11:39.940Z,52.75
2022-11-26T17:14:12.488Z,63.08
2022-11-26T17:16:45.518Z,33.63
2022-11-26T17:19:18.168Z,46.22
2022-11-26T17:21:51.245Z,35.47
2022-11-26T17:24:28.320Z,58.40
2022-11-26T17:27:06.399Z,47.65
2022-11-26T17:29:42.750Z,52.55
2022-11-26T17:32:20.199Z,62.00
2022-11-26T17:34:52.715Z,63.28
2022-11-26T17:37:28.224Z,41.22
2022-11-26T17:40:01.131Z,55.25
2022-11-26T17:42:36.801Z,35.13
2022-11-26T17:45:10.101Z,41.22
2022-11-26T17:47:43.102Z,42.30
2022-11-26T17:50:19.242Z,37.00
2022-11-26T17:52:55.559Z,29.80
2022-11-26T17:55:28.355Z,34.75
2022-11-26T17:58:01.400Z,35.75
2022-11-26T18:00:34.295Z,35.53
2022-11-26T18:03:07.240Z,41.15
2022-11-26T18:05:42.206Z,42.20
2022-11-26T18:08:15.729Z,43.83
2022-11-26T18:10:48.291Z,44.97
2022-11-26T18:13:21.241Z,53.55
2022-11-26T18:16:00.203Z,50.33
2022-11-26T18:18:33.322Z,33.20
2022-11-26T18:21:06.643Z,44.25
2022-11-26T18:23:41.632Z,49.40
2022-11-26T18:26:17.373Z,43.13
2022-11-26T18:28:50.285Z,121.35
2022-11-26T18:31:23.012Z,82.73
2022-11-26T18:33:56.017Z,97.03
2022-11-26T18:36:28.611Z,47.00
2022-11-26T18:39:02.951Z,38.90
2022-11-26T18:41:38.325Z,42.80
2022-11-26T18:44:11.407Z,38.33
2022-11-26T18:46:43.916Z,208.18
2022-11-26T18:49:16.900Z,72.35
2022-11-26T18:51:49.718Z,48.10
2022-11-26T18:54:22.854Z,67.45
2022-11-26T18:56:55.433Z,277.05
2022-11-26T18:59:28.571Z,88.78
2022-11-26T19:02:01.718Z,157.60
2022-11-26T19:04:34.898Z,211.77
2022-11-26T19:07:07.555Z,207.07
2022-11-26T19:09:40.975Z,108.13
2022-11-26T19:12:13.753Z,65.83
2022-11-26T19:14:46.789Z,65.13
2022-11-26T19:17:19.383Z,71.20
2022-11-26T19:19:52.512Z,142.95
2022-11-26T19:22:25.685Z,73.28
2022-11-26T19:24:59.606Z,82.47
2022-11-26T19:27:32.362Z,145.83
2022-11-26T19:30:06.367Z,88.72
2022-11-26T19:32:38.977Z,64.07
2022-11-26T19:35:14.215Z,71.50
2022-11-26T19:37:47.069Z,62.72
2022-11-26T19:40:19.991Z,47.35
2022-11-26T19:42:52.571Z,59.33
2022-11-26T19:45:25.418Z,55.35
2022-11-26T19:47:58.146Z,215.55
2022-11-26T19:50:31.105Z,68.97
2022-11-26T19:53:03.846Z,98.80
2022-11-26T19:55:36.724Z,65.85
2022-11-26T19:58:09.565Z,50.72
2022-11-26T20:00:42.912Z,52.85
2022-11-26T20:03:15.485Z,48.03
2022-11-26T20:05:48.888Z,54.60
2022-11-26T20:08:21.895Z,49.07
2022-11-26T20:11:00.483Z,50.45
2022-11-26T20:13:33.809Z,56.33
2022-11-26T20:16:07.645Z,55.57
2022-11-26T20:18:41.733Z,39.75
2022-11-26T20:21:15.869Z,39.17
2022-11-26T20:23:49.253Z,78.85
2022-11-26T20:26:27.220Z,63.58
2022-11-26T20:29:01.657Z,52.45
2022-11-26T20:31:35.741Z,75.82
2022-11-26T20:34:08.620Z,75.20
2022-11-26T20:36:41.727Z,53.33
2022-11-26T20:39:15.498Z,49.72
2022-11-26T20:41:48.483Z,42.67
2022-11-26T20:44:21.099Z,35.73
2022-11-26T20:46:56.065Z,48.15
2022-11-26T20:49:40.092Z,41.33
2022-11-26T20:52:15.776Z,37.83
2022-11-26T20:54:53.355Z,39.65
2022-11-26T20:57:26.685Z,37.72
2022-11-26T20:59:59.343Z,41.67
2022-11-26T21:02:32.792Z,42.08
2022-11-26T21:05:05.757Z,68.05
2022-11-26T21:07:38.835Z,46.28
2022-11-26T21:10:14.319Z,38.17
2022-11-26T21:12:47.332Z,37.17
2022-11-26T21:15:19.804Z,33.03
2022-11-26T21:17:52.941Z,36.03
2022-11-26T21:20:26.313Z,41.00
2022-11-26T21:22:59.734Z,36.60
2022-11-26T21:25:32.344Z,34.58
2022-11-26T21:28:08.621Z,31.00
2022-11-26T21:30:42.061Z,32.50
2022-11-26T21:33:15.140Z,31.15
2022-11-26T21:35:47.632Z,33.28
2022-11-26T21:38:25.335Z,30.35
2022-11-26T21:41:04.890Z,40.83
2022-11-26T21:43:38.017Z,29.77
2022-11-26T21:46:16.459Z,33.35
2022-11-26T21:48:54.851Z,34.03
2022-11-26T21:51:28.659Z,32.13
2022-11-26T21:54:01.604Z,36.38
2022-11-26T21:56:35.290Z,34.87
2022-11-26T21:59:11.130Z,30.05
2022-11-26T22:01:46.237Z,34.35
2022-11-26T22:04:19.861Z,39.10
2022-11-26T22:06:52.512Z,34.30
2022-11-26T22:09:25.475Z,43.17
2022-11-26T22:11:58.259Z,46.80
2022-11-26T22:14:31.352Z,38.57
2022-11-26T22:17:04.636Z,36.05
2022-11-26T22:19:38.054Z,37.33
2022-11-26T22:22:10.868Z,36.10
2022-11-26T22:24:43.766Z,40.33
2022-11-26T22:27:16.643Z,40.75
2022-11-26T22:29:49.645Z,41.50
2022-11-26T22:32:22.242Z,40.67
2022-11-26T22:34:55.118Z,31.27
2022-11-26T22:37:27.607Z,37.58
2022-11-26T22:40:00.584Z,43.13
2022-11-26T22:42:33.221Z,40.45
2022-11-26T22:45:06.349Z,45.67
2022-11-26T22:47:38.920Z,41.33
2022-11-26T22:50:12.076Z,45.43
2022-11-26T22:52:44.646Z,50.23
2022-11-26T22:55:17.671Z,45.65
2022-11-26T22:57:50.157Z,44.00
2022-11-26T23:00:41.935Z,42.45
2022-11-26T23:03:14.707Z,46.72
2022-11-26T23:05:47.829Z,42.63
2022-11-26T23:08:21.038Z,41.45
2022-11-26T23:10:53.902Z,40.38
2022-11-26T23:13:26.406Z,43.13
2022-11-26T23:15:59.656Z,45.20
2022-11-26T23:18:32.661Z,46.80
2022-11-26T23:21:06.665Z,46.60
2022-11-26T23:23:40.222Z,39.47
2022-11-26T23:26:26.692Z,39.73
2022-11-26T23:29:01.032Z,34.92
2022-11-26T23:31:35.422Z,36.20
2022-11-26T23:34:08.756Z,35.55
2022-11-26T23:36:41.760Z,33.65
2022-11-26T23:39:14.332Z,39.47
2022-11-26T23:41:47.497Z,39.93
2022-11-26T23:44:20.285Z,38.72
2022-11-26T23:46:53.276Z,39.97
2022-11-26T23:49:26.422Z,38.42
2022-11-26T23:51:59.481Z,40.53
2022-11-26T23:54:32.169Z,33.60
2022-11-26T23:57:05.980Z,31.08
2022-11-26T23:59:41.174Z,31.60
